createdAt,value
2023-03-05T00:00:25.130Z,69.20
2023-03-05T00:04:11.839Z,69.20
2023-03-05T00:07:53.934Z,68.90
2023-03-05T00:11:35.888Z,69.10
2023-03-05T00:15:17.657Z,69.10
2023-03-05T00:19:00.835Z,69.10
2023-03-05T00:22:42.766Z,69.20
2023-03-05T00:26:26.683Z,69.20
2023-03-05T00:30:09.266Z,69.10
2023-03-05T00:33:56.182Z,69.20
2023-03-05T00:37:38.069Z,69.20
2023-03-05T00:41:20.064Z,69.20
2023-03-05T00:45:01.914Z,69.30
2023-03-05T00:48:43.825Z,69.10
2023-03-05T00:52:25.634Z,68.90
2023-03-05T00:56:07.622Z,68.90
2023-03-05T00:59:49.340Z,68.90
2023-03-05T01:03:32.599Z,68.90
2023-03-05T01:07:14.363Z,68.80
2023-03-05T01:10:56.554Z,68.80
2023-03-05T01:14:38.260Z,68.70
2023-03-05T01:18:20.593Z,68.80
2023-03-05T01:22:02.381Z,68.80
2023-03-05T01:25:44.115Z,68.90
2023-03-05T01:29:25.952Z,69.00
2023-03-05T01:33:07.677Z,69.00
2023-03-05T01:36:50.509Z,69.10
2023-03-05T01:40:32.337Z,69.10
2023-03-05T01:44:26.409Z,69.00
2023-03-05T01:48:08.115Z,68.10
2023-03-05T01:52:17.931Z,68.80
2023-03-05T01:55:59.938Z,68.20
2023-03-05T01:59:44.636Z,68.90
2023-03-05T02:03:26.989Z,68.70
2023-03-05T02:07:09.568Z,68.70
2023-03-05T02:10:55.356Z,68.60
2023-03-05T02:14:37.803Z,68.60
2023-03-05T02:18:20.551Z,68.70
2023-03-05T02:22:02.310Z,68.50
2023-03-05T02:25:44.621Z,68.50
2023-03-05T02:29:29.286Z,68.60
2023-03-05T02:33:11.133Z,69.20
2023-03-05T02:36:55.625Z,68.50
2023-03-05T02:40:37.388Z,68.70
2023-03-05T02:44:19.218Z,68.90
2023-03-05T02:48:01.321Z,68.90
2023-03-05T02:51:43.164Z,68.80
2023-03-05T02:55:24.879Z,68.80
2023-03-05T02:59:07.018Z,68.90
2023-03-05T03:02:48.851Z,68.90
2023-03-05T03:06:30.592Z,68.90
2023-03-05T03:10:12.905Z,68.90
2023-03-05T03:13:54.755Z,69.00
2023-03-05T03:17:37.490Z,68.90
2023-03-05T03:21:25.788Z,68.80
2023-03-05T03:25:08.350Z,68.50
2023-03-05T03:28:50.756Z,68.80
2023-03-05T03:32:33.107Z,68.90
2023-03-05T03:36:14.970Z,68.80
2023-03-05T03:39:56.900Z,68.80
2023-03-05T03:43:38.747Z,68.80
2023-03-05T03:47:20.490Z,68.90
2023-03-05T03:51:05.472Z,69.00
2023-03-05T03:54:47.372Z,68.90
2023-03-05T03:58:29.364Z,68.80
2023-03-05T04:02:11.109Z,68.80
2023-03-05T04:05:52.844Z,68.80
2023-03-05T04:09:34.600Z,68.80
2023-03-05T04:13:16.301Z,68.90
2023-03-05T04:16:58.132Z,68.90
2023-03-05T04:20:39.908Z,68.90
2023-03-05T04:24:21.707Z,68.90
2023-03-05T04:28:03.476Z,68.90
2023-03-05T04:31:45.206Z,68.80
2023-03-05T04:35:27.066Z,68.80
2023-03-05T04:39:09.044Z,68.90
2023-03-05T04:42:50.765Z,69.00
2023-03-05T04:46:32.930Z,69.10
2023-03-05T04:50:14.921Z,69.10
2023-03-05T04:53:56.696Z,69.00
2023-03-05T04:57:39.041Z,69.10
2023-03-05T05:01:20.869Z,69.00
2023-03-05T05:05:02.642Z,69.00
2023-03-05T05:08:44.442Z,69.00
2023-03-05T05:12:30.583Z,69.10
2023-03-05T05:16:12.875Z,69.00
2023-03-05T05:19:54.824Z,69.20
2023-03-05T05:23:37.223Z,69.10
2023-03-05T05:27:18.962Z,69.00
2023-03-05T05:31:00.938Z,69.10
2023-03-05T05:34:42.686Z,69.20
2023-03-05T05:38:24.503Z,69.20
2023-03-05T05:42:06.505Z,69.20
2023-03-05T05:45:48.436Z,69.20
2023-03-05T05:49:30.242Z,69.20
2023-03-05T05:53:11.993Z,69.10
2023-03-05T05:56:54.908Z,69.20
2023-03-05T06:00:36.754Z,69.20
2023-03-05T06:04:18.478Z,69.20
2023-03-05T06:08:00.332Z,69.20
2023-03-05T06:11:42.096Z,69.20
2023-03-05T06:15:23.850Z,69.20
2023-03-05T06:19:06.051Z,69.20
2023-03-05T06:22:47.788Z,69.20
2023-03-05T06:26:29.526Z,69.30
2023-03-05T06:30:12.793Z,70.00
2023-03-05T06:33:56.352Z,69.30
2023-03-05T06:37:38.048Z,69.30
2023-03-05T06:41:22.292Z,69.40
2023-03-05T06:45:04.436Z,69.30
2023-03-05T06:48:47.016Z,69.30
2023-03-05T06:52:28.725Z,70.10
2023-03-05T06:56:11.209Z,69.50
2023-03-05T06:59:53.066Z,69.40
2023-03-05T07:03:36.406Z,69.40
2023-03-05T07:07:20.887Z,69.40
2023-03-05T07:11:03.322Z,70.10
2023-03-05T07:14:45.400Z,69.50
2023-03-05T07:18:27.189Z,69.40
2023-03-05T07:22:09.056Z,69.50
2023-03-05T07:25:50.774Z,69.50
2023-03-05T07:29:32.492Z,69.60
2023-03-05T07:33:14.188Z,69.60
2023-03-05T07:36:55.928Z,69.60
2023-03-05T07:40:37.777Z,69.60
2023-03-05T07:44:20.368Z,69.60
2023-03-05T07:48:02.069Z,69.70
2023-03-05T07:51:44.303Z,69.60
2023-03-05T07:55:26.033Z,69.60
2023-03-05T07:59:10.947Z,69.70
2023-03-05T08:02:52.703Z,69.70
2023-03-05T08:06:34.722Z,69.80
2023-03-05T08:10:16.620Z,69.60
2023-03-05T08:13:59.470Z,69.60
2023-03-05T08:17:41.743Z,69.80
2023-03-05T08:21:33.688Z,69.80
2023-03-05T08:25:15.594Z,69.70
2023-03-05T08:28:58.264Z,69.70
2023-03-05T08:32:40.232Z,69.70
2023-03-05T08:36:22.167Z,69.60
2023-03-05T08:40:05.183Z,69.70
2023-03-05T08:43:47.127Z,69.60
2023-03-05T08:47:29.023Z,69.60
2023-03-05T08:51:17.426Z,69.50
2023-03-05T08:54:59.135Z,69.00
2023-03-05T08:58:41.023Z,69.20
2023-03-05T09:02:23.089Z,69.00
2023-03-05T09:06:08.188Z,69.20
2023-03-05T09:09:49.920Z,69.10
2023-03-05T09:13:32.308Z,69.30
2023-03-05T09:17:14.026Z,69.40
2023-03-05T09:20:56.538Z,69.60
2023-03-05T09:24:39.007Z,69.80
2023-03-05T09:28:20.852Z,70.30
2023-03-05T09:32:02.756Z,70.60
2023-03-05T09:35:44.804Z,71.10
2023-03-05T09:39:26.929Z,70.80
2023-03-05T09:43:19.581Z,70.80
2023-03-05T09:47:06.810Z,70.20
2023-03-05T09:50:59.004Z,70.30
2023-03-05T09:54:44.616Z,69.70
2023-03-05T09:58:37.082Z,70.20
2023-03-05T10:02:32.648Z,69.40
2023-03-05T10:06:32.555Z,68.80
2023-03-05T10:10:22.399Z,68.40
2023-03-05T10:14:04.792Z,69.10
2023-03-05T10:18:14.712Z,69.80
2023-03-05T10:22:08.251Z,68.00
2023-03-05T10:25:53.513Z,68.50
2023-03-05T10:30:02.961Z,68.50
2023-03-05T10:34:02.764Z,67.70
2023-03-05T10:37:58.073Z,68.00
2023-03-05T10:41:39.764Z,68.20
2023-03-05T10:45:28.985Z,69.40
2023-03-05T10:49:27.468Z,68.70
2023-03-05T10:53:33.722Z,68.10
2023-03-05T10:57:18.494Z,68.20
2023-03-05T11:01:04.793Z,68.50
2023-03-05T11:04:49.391Z,68.60
2023-03-05T11:08:33.835Z,68.80
2023-03-05T11:12:22.025Z,68.80
2023-03-05T11:16:06.682Z,69.40
2023-03-05T11:19:48.529Z,68.10
2023-03-05T11:23:30.312Z,68.20
2023-03-05T11:27:51.472Z,68.00
2023-03-05T11:31:34.232Z,65.60
2023-03-05T11:35:34.215Z,67.80
2023-03-05T11:39:18.064Z,65.90
2023-03-05T11:43:02.671Z,68.10
2023-03-05T11:46:54.042Z,67.30
2023-03-05T11:50:37.784Z,66.50
2023-03-05T11:54:26.988Z,67.10
2023-03-05T11:58:23.898Z,66.40
2023-03-05T12:02:19.392Z,66.90
2023-03-05T12:06:36.770Z,65.30
2023-03-05T12:10:24.360Z,64.90
2023-03-05T12:14:41.353Z,66.10
2023-03-05T12:18:56.759Z,65.00
2023-03-05T12:22:40.960Z,65.40
2023-03-05T12:26:53.495Z,66.50
2023-03-05T12:30:35.199Z,65.10
2023-03-05T12:34:35.514Z,66.50
2023-03-05T12:38:32.960Z,65.20
2023-03-05T12:42:30.132Z,64.60
2023-03-05T12:46:32.975Z,64.90
2023-03-05T12:50:27.215Z,64.80
2023-03-05T12:54:35.926Z,65.30
2023-03-05T12:58:32.338Z,65.00
2023-03-05T13:02:23.399Z,65.90
2023-03-05T13:06:06.809Z,65.80
2023-03-05T13:09:55.237Z,66.10
2023-03-05T13:13:42.883Z,65.60
2023-03-05T13:18:00.371Z,66.00
2023-03-05T13:21:42.217Z,65.30
2023-03-05T13:25:24.000Z,66.20
2023-03-05T13:29:28.268Z,66.00
2023-03-05T13:33:18.357Z,65.50
2023-03-05T13:37:05.085Z,65.80
2023-03-05T13:41:06.919Z,66.00
2023-03-05T13:45:04.387Z,66.00
2023-03-05T13:48:46.132Z,66.20
2023-03-05T13:52:32.042Z,66.50
2023-03-05T13:56:17.098Z,66.60
2023-03-05T13:59:59.790Z,66.60
2023-03-05T14:03:41.717Z,66.80
2023-03-05T14:07:41.460Z,67.00
2023-03-05T14:11:23.253Z,67.10
2023-03-05T14:15:23.926Z,67.10
2023-03-05T14:19:07.301Z,67.30
2023-03-05T14:22:50.173Z,67.30
2023-03-05T14:26:37.533Z,67.20
2023-03-05T14:30:21.671Z,67.60
2023-03-05T14:34:06.669Z,67.70
2023-03-05T14:37:49.708Z,67.90
2023-03-05T14:41:41.230Z,68.00
2023-03-05T14:45:34.626Z,68.30
2023-03-05T14:49:17.284Z,68.50
2023-03-05T14:53:01.868Z,68.70
2023-03-05T14:56:43.757Z,68.80
2023-03-05T15:00:28.064Z,69.00
2023-03-05T15:04:09.772Z,69.10
2023-03-05T15:07:52.224Z,69.00
2023-03-05T15:11:34.669Z,68.90
2023-03-05T15:15:18.025Z,69.00
2023-03-05T15:18:59.643Z,68.70
2023-03-05T15:22:41.384Z,68.50
2023-03-05T15:26:23.123Z,68.70
2023-03-05T15:30:07.183Z,68.60
2023-03-05T15:33:48.903Z,68.60
2023-03-05T15:37:31.024Z,68.70
2023-03-05T15:41:13.207Z,69.30
2023-03-05T15:44:54.939Z,68.80
2023-03-05T15:48:36.729Z,68.80
2023-03-05T15:52:18.625Z,69.40
2023-03-05T15:56:00.372Z,68.80
2023-03-05T15:59:42.091Z,68.60
2023-03-05T16:03:23.885Z,68.60
2023-03-05T16:07:07.096Z,69.30
2023-03-05T16:10:48.875Z,69.40
2023-03-05T16:14:32.120Z,68.70
2023-03-05T16:18:16.513Z,68.60
2023-03-05T16:21:58.215Z,68.60
2023-03-05T16:25:40.242Z,68.70
2023-03-05T16:29:21.995Z,68.80
2023-03-05T16:33:03.998Z,68.90
2023-03-05T16:36:52.593Z,68.90
2023-03-05T16:41:05.651Z,69.00
2023-03-05T16:44:43.834Z,68.90
2023-03-05T16:48:25.650Z,69.60
2023-03-05T16:52:18.406Z,68.90
2023-03-05T16:56:06.555Z,69.60
2023-03-05T16:59:48.434Z,69.00
2023-03-05T17:03:30.458Z,69.00
2023-03-05T17:07:12.302Z,69.10
2023-03-05T17:10:54.146Z,69.00
2023-03-05T17:14:35.898Z,69.10
2023-03-05T17:18:17.616Z,69.10
2023-03-05T17:21:59.335Z,69.10
2023-03-05T17:25:41.228Z,69.20
2023-03-05T17:29:23.352Z,69.20
2023-03-05T17:33:05.868Z,69.30
2023-03-05T17:36:50.560Z,69.40
2023-03-05T17:40:32.452Z,69.50
2023-03-05T17:44:14.382Z,69.50
2023-03-05T17:47:57.739Z,69.60
2023-03-05T17:51:40.920Z,69.60
2023-03-05T17:55:25.268Z,69.80
2023-03-05T17:59:07.618Z,69.90
2023-03-05T18:02:50.756Z,69.90
2023-03-05T18:06:33.543Z,70.00
2023-03-05T18:10:23.586Z,70.00
2023-03-05T18:14:08.884Z,70.20
2023-03-05T18:17:52.215Z,70.30
2023-03-05T18:21:34.200Z,70.30
2023-03-05T18:25:16.250Z,70.40
2023-03-05T18:29:00.217Z,70.50
2023-03-05T18:32:42.519Z,70.60
2023-03-05T18:36:25.267Z,70.60
2023-03-05T18:40:19.532Z,70.70
2023-03-05T18:44:01.925Z,71.30
2023-03-05T18:47:43.841Z,70.80
2023-03-05T18:51:26.870Z,71.00
2023-03-05T18:55:13.037Z,71.10
2023-03-05T18:58:54.851Z,71.10
2023-03-05T19:02:36.692Z,71.10
2023-03-05T19:06:18.535Z,71.30
2023-03-05T19:10:07.301Z,71.30
2023-03-05T19:13:50.656Z,71.40
2023-03-05T19:17:32.867Z,71.60
2023-03-05T19:21:14.671Z,71.60
2023-03-05T19:24:56.466Z,71.70
2023-03-05T19:28:38.282Z,71.70
2023-03-05T19:32:21.955Z,71.70
2023-03-05T19:36:08.622Z,71.90
2023-03-05T19:39:50.840Z,72.10
2023-03-05T19:43:32.882Z,72.00
2023-03-05T19:47:14.872Z,72.10
2023-03-05T19:50:56.664Z,72.20
2023-03-05T19:54:38.409Z,72.20
2023-03-05T19:58:20.232Z,72.30
2023-03-05T20:02:02.079Z,72.40
2023-03-05T20:05:43.840Z,72.60
2023-03-05T20:09:25.726Z,72.60
2023-03-05T20:13:07.423Z,72.80
2023-03-05T20:16:49.230Z,72.90
2023-03-05T20:20:31.028Z,73.00
2023-03-05T20:24:15.386Z,73.10
2023-03-05T20:27:57.075Z,73.50
2023-03-05T20:31:39.402Z,73.40
2023-03-05T20:35:21.537Z,73.50
2023-03-05T20:39:05.139Z,73.70
2023-03-05T20:42:47.018Z,74.10
2023-03-05T20:46:31.806Z,74.00
2023-03-05T20:50:14.873Z,74.50
2023-03-05T20:53:59.341Z,74.40
2023-03-05T20:57:42.594Z,74.60
2023-03-05T21:01:25.626Z,74.50
2023-03-05T21:05:07.661Z,74.70
2023-03-05T21:08:49.797Z,74.90
2023-03-05T21:12:34.726Z,74.90
2023-03-05T21:16:24.381Z,75.60
2023-03-05T21:20:07.523Z,75.90
2023-03-05T21:23:49.371Z,75.50
2023-03-05T21:27:31.073Z,75.30
2023-03-05T21:31:19.772Z,75.60
2023-03-05T21:35:01.650Z,76.20
2023-03-05T21:38:43.376Z,76.40
2023-03-05T21:42:25.143Z,76.40
2023-03-05T21:46:07.058Z,75.70
2023-03-05T21:49:49.035Z,75.80
2023-03-05T21:53:30.789Z,76.00
2023-03-05T21:57:12.801Z,76.10
2023-03-05T22:00:54.680Z,76.20
2023-03-05T22:04:36.494Z,76.40
2023-03-05T22:08:18.199Z,76.40
2023-03-05T22:11:59.996Z,76.50
2023-03-05T22:15:44.221Z,76.70
2023-03-05T22:19:26.045Z,77.00
2023-03-05T22:23:08.036Z,76.90
2023-03-05T22:26:49.758Z,76.90
2023-03-05T22:30:32.200Z,77.00
2023-03-05T22:34:20.107Z,77.20
2023-03-05T22:38:01.991Z,77.20
2023-03-05T22:41:46.294Z,77.20
2023-03-05T22:45:29.267Z,77.30
2023-03-05T22:49:10.980Z,77.70
2023-03-05T22:52:52.796Z,77.70
2023-03-05T22:56:34.706Z,78.60
2023-03-05T23:00:23.687Z,78.10
2023-03-05T23:04:18.573Z,79.10
2023-03-05T23:08:00.696Z,78.50
2023-03-05T23:11:42.391Z,78.80
2023-03-05T23:15:35.857Z,79.10
2023-03-05T23:19:17.596Z,81.10
2023-03-05T23:23:00.270Z,79.60
2023-03-05T23:26:42.299Z,79.80
2023-03-05T23:30:26.157Z,80.00
2023-03-05T23:34:07.949Z,80.30
2023-03-05T23:37:49.943Z,80.20
2023-03-05T23:41:31.661Z,80.30
2023-03-05T23:45:15.060Z,80.30
2023-03-05T23:48:56.688Z,80.30
2023-03-05T23:52:38.486Z,81.50
2023-03-05T23:56:20.193Z,79.90
